• Join FlightAware (Why Join?)
  • Login
  • US Flag 
 
12:14PM EST


 

Airport Tracker/Info


-or-


 

Live Flight TrackerFlight Track Log ✈ EJA929 ✈ 21-Oct-2013 ✈ KPDK - KPTK

Flight Track Log - Related Links

Times and Time Zones

All times are in EDT time to prevent confusion due to time zone crossing. See the EJA929 flight status page for this flight to view local times or setup timezone preferences in your user account.

Time Position Orientation Groundspeed Altitude Reporting Facility
EDT Latitude Longitude Course Direction KTS MPH feet Rate Location/Type
03:09PM 33.8667 -84.3500 North 212 244 3,000  Level Atlanta TRACON
03:10PM 33.9333 -84.3500 360° North 226 260 6,100 2,100 Climbing Atlanta TRACON
03:11PM 34.0000 -84.3333 12° North 289 333 7,200 2,280 Climbing Atlanta TRACON
03:14PM 34.1925 -84.3225 North 335 386 13,400 2,700 Climbing Atlanta Center
03:15PM 34.6974 -84.2280 North  Level Estimated
03:15PM 34.3033 -84.3206 North 382 440 15,800  Level Atlanta Center
03:16PM 34.4158 -84.3158 North 393 452 18,700 2,100 Climbing Atlanta Center
03:17PM 34.5181 -84.3161 360° North 406 467 20,100 1,440 Climbing Atlanta Center
03:18PM 34.6372 -84.3164 360° North 411 473 21,600 1,620 Climbing Atlanta Center
03:19PM 34.7603 -84.3144 North 427 491 23,400 1,680 Climbing Atlanta Center
03:20PM 34.8833 -84.3172 359° North 440 506 25,000 1,560 Climbing Atlanta Center
03:21PM 35.0189 -84.3178 360° North 440 506 26,600 1,860 Climbing Atlanta Center
03:22PM 35.1506 -84.3183 360° North 452 520 28,800 2,100 Climbing Atlanta Center
03:23PM 35.2797 -84.3186 360° North 458 527 30,800 1,500 Climbing Atlanta Center
03:24PM 35.4133 -84.3164 North 469 540 31,800 1,080 Climbing Atlanta Center
03:25PM 35.5531 -84.3194 359° North 481 554 33,000 660 Climbing Atlanta Center
03:26PM 35.6992 -84.3175 North 493 567 33,200 480 Climbing Atlanta Center
03:27PM 35.8494 -84.3181 360° North 523 602 34,000 900 Climbing Atlanta Center
03:28PM 36.0889 -84.3150 North 554 638 35,700 1,140 Climbing Indianapolis Center
03:29PM 36.2397 -84.3144 360° North 548 631 37,100 1,500 Climbing Indianapolis Center
03:30PM 36.4175 -84.3147 360° North 538 619 38,900 1,380 Climbing Indianapolis Center
03:31PM 36.5539 -84.3153 360° North 528 608 40,000 480 Climbing Indianapolis Center
03:32PM 36.7000 -84.3161 360° North 524 603 40,000  Level Indianapolis Center
03:33PM 36.8489 -84.3208 359° North 529 609 40,000  Level Indianapolis Center
03:35PM 37.0228 -84.3239 359° North 531 611 40,000  Level Indianapolis Center
03:36PM 37.1708 -84.3278 359° North 531 611 40,000  Level Indianapolis Center
03:37PM 37.3219 -84.3317 359° North 536 617 40,000  Level Indianapolis Center
03:38PM 37.4722 -84.3350 359° North 537 618 40,000  Level Indianapolis Center
03:39PM 37.6222 -84.3397 359° North 536 617 40,000  Level Indianapolis Center
03:40PM 37.7744 -84.3400 360° North 541 623 40,000  Level Indianapolis Center
03:41PM 37.9475 -84.3472 358° North 534 615 40,000  Level Indianapolis Center
03:42PM 38.1000 -84.3506 359° North 539 620 40,000  Level Indianapolis Center
03:43PM 38.2531 -84.3522 360° North 545 627 40,000  Level Indianapolis Center
03:44PM 38.4036 -84.3558 359° North 540 621 40,000  Level Indianapolis Center
03:45PM 38.5542 -84.3597 359° North 539 620 40,000  Level Indianapolis Center
03:46PM 38.7133 -84.3633 359° North 537 618 40,000 -180 Level Indianapolis Center
03:47PM 38.8625 -84.3672 359° North 534 615 39,700 -1,020 Descending Indianapolis Center
03:48PM 39.0069 -84.3714 359° North 521 600 37,900 -1,860 Descending Indianapolis Center
03:49PM 39.1589 -84.3625 North 543 625 35,900 -2,100 Descending Indianapolis Center
03:50PM 39.3461 -84.3378 North 564 649 33,600 -2,160 Descending Indianapolis Center
03:51PM 39.4981 -84.3431 358° North 543 625 31,500 -2,160 Descending Indianapolis Center
03:52PM 39.6475 -84.3583 355° North 538 619 29,100 -1,560 Descending Indianapolis Center
03:53PM 39.7997 -84.3742 355° North 541 623 28,300 -1,380 Descending Indianapolis Center
03:54PM 39.9444 -84.3897 355° North 528 608 26,300 -1,980 Descending Indianapolis Center
03:55PM 40.0864 -84.3994 357° North 514 592 24,300 -1,140 Descending Indianapolis Center
03:56PM 40.2253 -84.4022 359° North 499 574 24,000 -180 Descending Indianapolis Center
03:57PM 40.3936 -84.4067 359° North 501 577 24,000  Level Indianapolis Center
03:58PM 40.5350 -84.4103 359° North 506 582 24,000  Level Indianapolis Center
03:59PM 40.6761 -84.4139 359° North 506 582 24,000  Level Indianapolis Center
04:00PM 40.8178 -84.4178 359° North 510 587 24,000  Level Indianapolis Center
04:01PM 40.9589 -84.4217 359° North 507 583 24,000 -840 Level Indianapolis Center
04:02PM 41.0961 -84.4242 359° North 496 571 22,300 -2,220 Descending Indianapolis Center
04:03PM 41.2567 -84.4297 359° North 484 557 19,500 -2,400 Descending Indianapolis Center
04:05PM 41.3700 -84.4336 359° North 469 540 17,300 -2,460 Descending Cleveland Center
04:06PM 41.5194 -84.4364 359° North 452 520 14,400 -2,100 Descending Cleveland Center
04:07PM 41.6364 -84.4442 357° North 430 495 13,000 -720 Descending Cleveland Center
04:08PM 41.7292 -84.5100 332° Northwest 391 450 13,000 -540 Level Cleveland Center
04:09PM 41.8286 -84.5769 333° Northwest 399 459 11,900 -1,020 Descending Cleveland Center
04:10PM 41.9306 -84.5761 360° North 391 450 11,000 -960 Descending Cleveland Center
04:11PM 41.9836 -84.4572 59° Northeast 362 417 10,100 -1,020 Descending Cleveland Center
04:11PM 41.9867 -84.4372 78° East 363 418 10,000 -120 Descending Cleveland Center
04:12PM 41.9789 -84.3111 95° East 340 391 10,000  Level Cleveland Center
04:12PM 41.9733 -84.2364 96° East 335 386 10,000  Level Cleveland Center
04:13PM 41.9725 -84.1975 92° East 341 392 10,000 -600 Level Cleveland Center
04:14PM 42.0075 -84.0692 70° East 341 392 9,100 -1,260 Descending Cleveland Center
04:15PM 42.0875 -84.0278 21° North 309 356 7,400 -1,500 Descending Cleveland Center
04:16PM 42.1661 -83.9906 19° North 301 346 6,000 -960 Descending Cleveland Center
04:16PM 42.2094 -83.9739 16° North 287 330 6,000 -120 Level Cleveland Center
04:17PM 42.2417 -83.9586 19° North 290 334 5,900  Descending Cleveland Center
04:18PM 42.3178 -83.9272 17° North 286 329 6,000 -300 Climbing Cleveland Center
04:18PM 42.3564 -83.8972 30° Northeast 281 323 5,500 -1,020 Descending Cleveland Center
04:19PM 42.3828 -83.8681 39° Northeast 283 326 5,000 -1,200 Descending Cleveland Center
04:19PM 42.4244 -83.8336 31° Northeast 277 319 4,300 -1,020 Descending Cleveland Center
04:20PM 42.4522 -83.7931 47° Northeast 276 318 4,000 -240 Descending Cleveland Center
04:21PM 42.4894 -83.7003 61° Northeast 279 321 4,000  Level Cleveland Center
04:22PM 42.5269 -83.6067 61° Northeast 280 322 4,000  Level Cleveland Center
04:23PM 42.5422 -83.5678 62° Northeast 265 305 4,000  Level Cleveland Center
04:23PM 42.5519 -83.5203 74° East 256 295 4,000  Level Cleveland Center
04:24PM 42.5636 -83.4831 67° East 220 253 4,000 -300 Level Cleveland Center
04:24PM 42.5683 -83.4408 81° East 232 267 3,700 -660 Descending Cleveland Center
04:25PM 42.5772 -83.3594 82° East 222 255 3,000 -540 Descending Cleveland Center
04:26PM 42.5828 -83.3186 80° East 221 254 3,000  Level Cleveland Center
04:26PM 42.5856 -83.2769 85° East 220 253 3,000  Level Cleveland Center
04:27PM 42.5933 -83.2378 75° East 222 255 3,000  Level Cleveland Center
04:27PM 42.5953 -83.1944 86° East 220 253 3,000  Level Cleveland Center
04:28PM 42.5861 -83.0939 97° East 224 258 3,000  Level Cleveland Center
04:29PM 42.6294 -83.0586 31° Northeast 214 246 3,000  Level Cleveland Center
04:30PM 42.6525 -83.0617 354° North 198 228 3,000  Level Cleveland Center
04:30PM 42.6703 -83.0872 313° West 195 224 3,000 -420 Level Cleveland Center
04:31PM 42.6728 -83.1428 274° West 165 190 2,300 -360 Descending Cleveland Center
04:32PM 42.6692 -83.2017 265° West 157 181 2,300 -60 Level Cleveland Center
04:34PM 42.6664 -83.2719 267° West 156 180 2,200 -60 Descending Cleveland Center
04:35PM 42.6650 -83.3289 268° West 155 178 2,200 -180 Level Cleveland Center
04:35PM 42.6667 -83.3447 278° West 128 147 2,000 -600 Descending Cleveland Center
04:36PM 42.6642 -83.3764 264° West 143 165 1,600 -420 Descending Cleveland Center
04:37PM 42.6622 -83.4200 267° West 137 158 1,300 -300 Descending Cleveland Center